Observation data for Amherst on 12/10/2018      Previous  Date       Current Mesonet Observations  Soil Data  Daily Summary Page  Observations in Plain Language
KAMH 100600Z 28008KT M04/M05 A3037 RMK A01 T10381053  RH  090%=      5-min Rain = 0
KAMH 100605Z 28007KT M04/M05 A3037 RMK A01 T10411054  RH  091%=      5-min Rain = 0
KAMH 100610Z 29007KT M04/M06 A3037 RMK A01 T10441056  RH  091%=      5-min Rain = 0
KAMH 100615Z 29007KT M05/M06 A3037 RMK A01 T10461057  RH  092%=      5-min Rain = 0
KAMH 100620Z 29008KT M05/M06 A3037 RMK A01 T10451058  RH  091%=      5-min Rain = 0
KAMH 100625Z 29008KT M05/M06 A3037 RMK A01 T10471060  RH  091%=      5-min Rain = 0
KAMH 100630Z 29008KT M05/M06 A3037 RMK A01 T10471060  RH  091%=      5-min Rain = 0
KAMH 100635Z 29008KT M05/M06 A3037 RMK A01 T10471060  RH  091%=      5-min Rain = 0
KAMH 100640Z 29008KT M05/M06 A3036 RMK A01 T10481060  RH  092%=      5-min Rain = 0
KAMH 100645Z 29007KT M05/M06 A3036 RMK A01 T10471059  RH  091%=      5-min Rain = 0
KAMH 100650Z 29007KT M05/M06 A3036 RMK A01 T10481060  RH  091%=      5-min Rain = 0
KAMH 100655Z 29008KT M04/M06 A3036 RMK A01 T10431055  RH  092%=      5-min Rain = 0
KAMH 100700Z 29008KT M05/M06 A3036 RMK A01 T10461059  RH  091%=      5-min Rain = 0
KAMH 100705Z 29007KT M04/M06 A3035 RMK A01 T10431055  RH  091%=      5-min Rain = 0
KAMH 100710Z 29007KT M05/M06 A3035 RMK A01 T10471060  RH  091%=      5-min Rain = 0
KAMH 100715Z 29007KT M05/M06 A3035 RMK A01 T10471060  RH  091%=      5-min Rain = 0
KAMH 100720Z 29007KT M05/M06 A3035 RMK A01 T10471058  RH  092%=      5-min Rain = 0
KAMH 100725Z 29008KT M05/M06 A3035 RMK A01 T10471059  RH  091%=      5-min Rain = 0
KAMH 100730Z 29007KT M05/M06 A3035 RMK A01 T10471059  RH  092%=      5-min Rain = 0
KAMH 100735Z 29007KT M05/M06 A3034 RMK A01 T10451057  RH  092%=      5-min Rain = 0
KAMH 100740Z 30007KT M05/M06 A3034 RMK A01 T10461059  RH  091%=      5-min Rain = 0
KAMH 100745Z 30007KT M05/M06 A3034 RMK A01 T10471059  RH  092%=      5-min Rain = 0
KAMH 100750Z 30007KT M05/M06 A3034 RMK A01 T10481059  RH  092%=      5-min Rain = 0
KAMH 100755Z 30006KT M05/M06 A3034 RMK A01 T10471058  RH  092%=      5-min Rain = 0
KAMH 100800Z 30006KT M05/M06 A3034 RMK A01 T10481060  RH  092%=      5-min Rain = 0
KAMH 100805Z 30006KT M05/M06 A3034 RMK A01 T10451055  RH  093%=      5-min Rain = 0
KAMH 100810Z 30006KT M04/M05 A3034 RMK A01 T10421053  RH  093%=      5-min Rain = 0
KAMH 100815Z 30005KT M04/M06 A3034 RMK A01 T10441055  RH  092%=      5-min Rain = 0
KAMH 100820Z 29006KT M05/M06 A3034 RMK A01 T10451055  RH  093%=      5-min Rain = 0
KAMH 100825Z 28005KT M05/M06 A3034 RMK A01 T10481059  RH  092%=      5-min Rain = 0
KAMH 100830Z 28005KT M05/M06 A3034 RMK A01 T10531063  RH  093%=      5-min Rain = 0
KAMH 100835Z 28005KT M05/M06 A3034 RMK A01 T10511059  RH  094%=      5-min Rain = 0
KAMH 100840Z 28005KT M05/M06 A3034 RMK A01 T10481056  RH  095%=      5-min Rain = 0
KAMH 100845Z 28006KT M05/M06 A3034 RMK A01 T10481056  RH  094%=      5-min Rain = 0
KAMH 100850Z 28007KT M05/M06 A3033 RMK A01 T10461055  RH  094%=      5-min Rain = 0
KAMH 100855Z 27007KT M05/M06 A3033 RMK A01 T10481058  RH  093%=      5-min Rain = 0
KAMH 100900Z 28007KT M05/M06 A3033 RMK A01 T10501059  RH  093%=      5-min Rain = 0
KAMH 100905Z 28008KT M05/M06 A3034 RMK A01 T10481056  RH  094%=      5-min Rain = 0
KAMH 100910Z 28008KT M05/M06 A3034 RMK A01 T10481056  RH  094%=      5-min Rain = 0
KAMH 100915Z 29008KT M05/M06 A3033 RMK A01 T10471055  RH  094%=      5-min Rain = 0
KAMH 100920Z 29008KT M05/M06 A3034 RMK A01 T10481057  RH  093%=      5-min Rain = 0
KAMH 100925Z 30008KT M05/M06 A3033 RMK A01 T10481057  RH  094%=      5-min Rain = 0
KAMH 100930Z 29008KT M05/M06 A3033 RMK A01 T10481057  RH  094%=      5-min Rain = 0
KAMH 100935Z 29009KT M05/M05 A3033 RMK A01 T10461054  RH  095%=      5-min Rain = 0
KAMH 100940Z 29009KT M04/M05 A3033 RMK A01 T10441052  RH  095%=      5-min Rain = 0
KAMH 100945Z 30009KT M05/M05 A3033 RMK A01 T10451053  RH  094%=      5-min Rain = 0
KAMH 100950Z 29008KT M04/M05 A3033 RMK A01 T10441052  RH  095%=      5-min Rain = 0
KAMH 100955Z 29008KT M05/M05 A3033 RMK A01 T10451054  RH  094%=      5-min Rain = 0
KAMH 101000Z 29007KT M05/M06 A3033 RMK A01 T10481056  RH  094%=      5-min Rain = 0
KAMH 101005Z 30007KT M05/M06 A3033 RMK A01 T10511059  RH  094%=      5-min Rain = 0
KAMH 101010Z 30006KT M05/M06 A3033 RMK A01 T10511058  RH  095%=      5-min Rain = 0
KAMH 101015Z 30006KT M05/M06 A3033 RMK A01 T10511057  RH  095%=      5-min Rain = 0
KAMH 101020Z 30006KT M05/M06 A3033 RMK A01 T10511057  RH  095%=      5-min Rain = 0
KAMH 101025Z 30006KT M05/M06 A3032 RMK A01 T10511058  RH  096%=      5-min Rain = 0
KAMH 101030Z 30006KT M05/M06 A3033 RMK A01 T10511057  RH  096%=      5-min Rain = 0
KAMH 101035Z 30005KT M05/M06 A3033 RMK A01 T10501056  RH  096%=      5-min Rain = 0
KAMH 101040Z 29006KT M05/M06 A3032 RMK A01 T10501056  RH  096%=      5-min Rain = 0
KAMH 101045Z 29006KT M05/M06 A3032 RMK A01 T10511057  RH  096%=      5-min Rain = 0
KAMH 101050Z 30006KT M05/M06 A3033 RMK A01 T10531059  RH  096%=      5-min Rain = 0
KAMH 101055Z 31006KT M05/M06 A3033 RMK A01 T10541060  RH  096%=      5-min Rain = 0
KAMH 101100Z 31007KT M05/M06 A3033 RMK A01 T10541060  RH  096%=      5-min Rain = 0
KAMH 101105Z 31007KT M05/M06 A3033 RMK A01 T10541059  RH  096%=      5-min Rain = 0
KAMH 101110Z 31007KT M05/M06 A3033 RMK A01 T10541061  RH  096%=      5-min Rain = 0
KAMH 101115Z 31007KT M06/M06 A3032 RMK A01 T10551061  RH  095%=      5-min Rain = 0
KAMH 101120Z 31008KT M05/M06 A3032 RMK A01 T10541060  RH  096%=      5-min Rain = 0
KAMH 101125Z 31008KT M05/M06 A3032 RMK A01 T10541060  RH  096%=      5-min Rain = 0
KAMH 101130Z 31008KT M06/M06 A3032 RMK A01 T10551062  RH  095%=      5-min Rain = 0
KAMH 101135Z 31007KT M06/M06 A3032 RMK A01 T10571064  RH  095%=      5-min Rain = 0
KAMH 101140Z 31007KT M06/M07 A3033 RMK A01 T10581065  RH  095%=      5-min Rain = 0
KAMH 101145Z 31008KT M06/M06 A3032 RMK A01 T10581064  RH  095%=      5-min Rain = 0
KAMH 101150Z 31007KT M06/M06 A3032 RMK A01 T10551061  RH  096%=      5-min Rain = 0
KAMH 101155Z 31007KT M05/M06 A3032 RMK A01 T10531059  RH  096%=      5-min Rain = 0
KAMH 101200Z 30006KT M06/M06 A3033 RMK A01 T10551062  RH  095%=      5-min Rain = 0
KAMH 101205Z 30006KT M06/M07 A3033 RMK A01 T10571065  RH  095%=      5-min Rain = 0
KAMH 101210Z 30006KT M06/M07 A3033 RMK A01 T10601067  RH  094%=      5-min Rain = 0
KAMH 101215Z 29007KT M06/M07 A3033 RMK A01 T10611068  RH  095%=      5-min Rain = 0
KAMH 101220Z 29007KT M06/M06 A3033 RMK A01 T10571063  RH  096%=      5-min Rain = 0
KAMH 101225Z 28007KT M06/M07 A3033 RMK A01 T10601066  RH  095%=      5-min Rain = 0
KAMH 101230Z 28007KT M06/M07 A3033 RMK A01 T10591065  RH  096%=      5-min Rain = 0
KAMH 101235Z 29008KT M05/M06 A3033 RMK A01 T10541059  RH  096%=      5-min Rain = 0
KAMH 101240Z 29009KT M05/M06 A3033 RMK A01 T10531060  RH  095%=      5-min Rain = 0
KAMH 101245Z 29009KT M05/M06 A3033 RMK A01 T10541062  RH  094%=      5-min Rain = 0
KAMH 101250Z 29009KT M05/M06 A3033 RMK A01 T10541061  RH  094%=      5-min Rain = 0
KAMH 101255Z 28009KT M05/M06 A3034 RMK A01 T10541063  RH  094%=      5-min Rain = 0
KAMH 101300Z 28009KT M06/M07 A3034 RMK A01 T10571065  RH  094%=      5-min Rain = 0
KAMH 101305Z 28008KT M06/M06 A3034 RMK A01 T10551062  RH  095%=      5-min Rain = 0
KAMH 101310Z 28008KT M05/M06 A3034 RMK A01 T10491056  RH  096%=      5-min Rain = 0
KAMH 101315Z 29008KT M05/M06 A3034 RMK A01 T10511059  RH  094%=      5-min Rain = 0
KAMH 101320Z 29008KT M06/M07 A3034 RMK A01 T10571067  RH  093%=      5-min Rain = 0
KAMH 101325Z 28007KT M06/M07 A3034 RMK A01 T10571065  RH  094%=      5-min Rain = 0
KAMH 101330Z 28007KT M06/M07 A3034 RMK A01 T10621071  RH  093%=      5-min Rain = 0
KAMH 101335Z 28007KT M06/M07 A3035 RMK A01 T10631071  RH  094%=      5-min Rain = 0
KAMH 101340Z 28006KT M06/M07 A3035 RMK A01 T10631070  RH  095%=      5-min Rain = 0
KAMH 101345Z 29007KT M06/M07 A3035 RMK A01 T10611068  RH  095%=      5-min Rain = 0
KAMH 101350Z 29006KT M06/M07 A3035 RMK A01 T10591065  RH  096%=      5-min Rain = 0
KAMH 101355Z 30007KT M06/M06 A3035 RMK A01 T10561062  RH  096%=      5-min Rain = 0
KAMH 101400Z 31007KT M05/M06 A3035 RMK A01 T10541060  RH  095%=      5-min Rain = 0
KAMH 101405Z 31008KT M05/M06 A3035 RMK A01 T10521059  RH  095%=      5-min Rain = 0
KAMH 101410Z 30007KT M05/M06 A3035 RMK A01 T10491055  RH  095%=      5-min Rain = 0
KAMH 101415Z 30007KT M05/M05 A3035 RMK A01 T10471054  RH  095%=      5-min Rain = 0
KAMH 101420Z 29007KT M04/M05 A3035 RMK A01 T10441051  RH  095%=      5-min Rain = 0
KAMH 101425Z 29007KT M04/M05 A3035 RMK A01 T10431051  RH  094%=      5-min Rain = 0
KAMH 101430Z 28008KT M05/M06 A3035 RMK A01 T10451055  RH  093%=      5-min Rain = 0
KAMH 101435Z 28008KT M04/M05 A3035 RMK A01 T10441052  RH  094%=      5-min Rain = 0
KAMH 101440Z 28007KT M04/M05 A3035 RMK A01 T10381047  RH  094%=      5-min Rain = 0
KAMH 101445Z 28006KT M04/M05 A3035 RMK A01 T10361045  RH  093%=      5-min Rain = 0
KAMH 101450Z 29006KT M03/M04 A3035 RMK A01 T10321042  RH  093%=      5-min Rain = 0
KAMH 101455Z 29006KT M03/M04 A3035 RMK A01 T10291040  RH  093%=      5-min Rain = 0
KAMH 101500Z 30005KT M03/M04 A3036 RMK A01 T10251037  RH  092%=      5-min Rain = 0
KAMH 101505Z 30004KT M02/M03 A3036 RMK A01 T10221034  RH  092%=      5-min Rain = 0
KAMH 101510Z 31003KT M02/M03 A3036 RMK A01 T10201033  RH  091%=      5-min Rain = 0
KAMH 101515Z 33004KT M02/M03 A3036 RMK A01 T10191033  RH  091%=      5-min Rain = 0
KAMH 101520Z 32004KT M02/M03 A3037 RMK A01 T10171031  RH  091%=      5-min Rain = 0
KAMH 101525Z 33003KT M02/M03 A3037 RMK A01 T10151029  RH  091%=      5-min Rain = 0
KAMH 101530Z 32003KT M01/M03 A3037 RMK A01 T10121027  RH  090%=      5-min Rain = 0
KAMH 101535Z 31003KT M01/M02 A3037 RMK A01 T10091024  RH  090%=      5-min Rain = 0
KAMH 101540Z 30003KT M01/M02 A3037 RMK A01 T10061021  RH  090%=      5-min Rain = 0
KAMH 101545Z 30004KT M00/M02 A3037 RMK A01 T10031018  RH  090%=      5-min Rain = 0
KAMH 101550Z 29003KT M00/M02 A3037 RMK A01 T10021019  RH  089%=      5-min Rain = 0
KAMH 101555Z 27003KT M00/M02 A3037 RMK A01 T10011018  RH  089%=      5-min Rain = 0
KAMH 101600Z 26003KT 00/02 A3037 RMK A01 T00000-18  RH  089%=      5-min Rain = 0
KAMH 101605Z 25003KT 00/M02 A3036 RMK A01 T00041015  RH  088%=      5-min Rain = 0.01
KAMH 101610Z 26003KT 01/M01 A3036 RMK A01 T00081013  RH  087%=      5-min Rain = 0
KAMH 101615Z 26003KT 01/M01 A3036 RMK A01 T00121010  RH  086%=      5-min Rain = 0
KAMH 101620Z 27003KT 02/M01 A3036 RMK A01 T00161008  RH  085%=      5-min Rain = 0
KAMH 101625Z 28002KT 02/M01 A3036 RMK A01 T00211005  RH  084%=      5-min Rain = 0
KAMH 101630Z 29002KT 02/M01 A3036 RMK A01 T00221005  RH  083%=      5-min Rain = 0
KAMH 101635Z 28002KT 03/M00 A3036 RMK A01 T00251004  RH  082%=      5-min Rain = 0
KAMH 101640Z 26002KT 03/M00 A3036 RMK A01 T00291003  RH  080%=      5-min Rain = 0
KAMH 101645Z 26002KT 03/M00 A3036 RMK A01 T00321003  RH  079%=      5-min Rain = 0
KAMH 101650Z 27002KT 04/M00 A3036 RMK A01 T00361001  RH  077%=      5-min Rain = 0
KAMH 101655Z 26002KT 04/00 A3035 RMK A01 T00400000  RH  076%=      5-min Rain = 0
KAMH 101700Z 25003KT 05/00 A3035 RMK A01 T00450003  RH  075%=      5-min Rain = 0
KAMH 101705Z 25005KT 05/00 A3035 RMK A01 T00480004  RH  074%=      5-min Rain = 0
KAMH 101710Z 24006KT 05/00 A3035 RMK A01 T00510004  RH  072%=      5-min Rain = 0
KAMH 101715Z 24007KT 05/M00 A3035 RMK A01 T00531002  RH  069%=      5-min Rain = 0
KAMH 101720Z 24007KT 05/M00 A3035 RMK A01 T00541003  RH  067%=      5-min Rain = 0
KAMH 101725Z 25007KT 06/M00 A3035 RMK A01 T00551001  RH  068%=      5-min Rain = 0
KAMH 101730Z 25007KT 06/00 A3034 RMK A01 T00560002  RH  069%=      5-min Rain = 0
KAMH 101735Z 25006KT 06/00 A3034 RMK A01 T00570004  RH  069%=      5-min Rain = 0
KAMH 101740Z 25005KT 06/01 A3034 RMK A01 T00590006  RH  070%=      5-min Rain = 0
KAMH 101745Z 25007KT 06/00 A3034 RMK A01 T00610004  RH  068%=      5-min Rain = 0
KAMH 101750Z 25007KT 06/00 A3034 RMK A01 T00620002  RH  066%=      5-min Rain = 0
KAMH 101755Z 25007KT 07/00 A3034 RMK A01 T00650004  RH  066%=      5-min Rain = 0
KAMH 101800Z 27006KT 06/01 A3034 RMK A01 T00630007  RH  068%=      5-min Rain = 0
KAMH 101805Z 28005KT 06/01 A3033 RMK A01 T00630009  RH  069%=      5-min Rain = 0
KAMH 101810Z 28005KT 06/01 A3033 RMK A01 T00620009  RH  070%=      5-min Rain = 0
KAMH 101815Z 27006KT 07/01 A3033 RMK A01 T00650009  RH  068%=      5-min Rain = 0
KAMH 101820Z 27007KT 06/01 A3033 RMK A01 T00630008  RH  068%=      5-min Rain = 0
KAMH 101825Z 27007KT 07/01 A3032 RMK A01 T00650009  RH  068%=      5-min Rain = 0
KAMH 101830Z 26007KT 07/01 A3032 RMK A01 T00680008  RH  067%=      5-min Rain = 0
KAMH 101835Z 26006KT 07/01 A3032 RMK A01 T00700009  RH  066%=      5-min Rain = 0
KAMH 101840Z 27005KT 07/01 A3032 RMK A01 T00710009  RH  065%=      5-min Rain = 0
KAMH 101845Z 28005KT 07/01 A3032 RMK A01 T00740010  RH  064%=      5-min Rain = 0
KAMH 101850Z 28005KT 08/01 A3031 RMK A01 T00770010  RH  063%=      5-min Rain = 0
KAMH 101855Z 27006KT 08/01 A3031 RMK A01 T00810010  RH  062%=      5-min Rain = 0
KAMH 101900Z 26005KT 08/01 A3031 RMK A01 T00820010  RH  061%=      5-min Rain = 0
KAMH 101905Z 26005KT 08/01 A3031 RMK A01 T00830011  RH  061%=      5-min Rain = 0
KAMH 101910Z 26004KT 08/01 A303 RMK A01 T00840010  RH  061%=      5-min Rain = 0
KAMH 101915Z 26005KT 08/01 A303 RMK A01 T00840012  RH  061%=      5-min Rain = 0
KAMH 101920Z 26005KT 09/01 A303 RMK A01 T00850013  RH  061%=      5-min Rain = 0
KAMH 101925Z 26005KT 09/01 A303 RMK A01 T00860014  RH  062%=      5-min Rain = 0
KAMH 101930Z 26004KT 09/01 A303 RMK A01 T00880014  RH  061%=      5-min Rain = 0
KAMH 101935Z 26005KT 09/01 A3029 RMK A01 T00880013  RH  060%=      5-min Rain = 0
KAMH 101940Z 26006KT 09/01 A3029 RMK A01 T00910013  RH  059%=      5-min Rain = 0
KAMH 101945Z 26007KT 09/01 A3029 RMK A01 T00910012  RH  059%=      5-min Rain = 0
KAMH 101950Z 25006KT 09/01 A3029 RMK A01 T00910011  RH  058%=      5-min Rain = 0
KAMH 101955Z 25006KT 09/01 A3028 RMK A01 T00930011  RH  057%=      5-min Rain = 0
KAMH 102000Z 24005KT 09/01 A3028 RMK A01 T00940009  RH  056%=      5-min Rain = 0
KAMH 102005Z 23006KT 10/01 A3028 RMK A01 T00950010  RH  056%=      5-min Rain = 0
KAMH 102010Z 24006KT 10/01 A3028 RMK A01 T00980010  RH  055%=      5-min Rain = 0
KAMH 102015Z 25006KT 10/01 A3028 RMK A01 T01010012  RH  055%=      5-min Rain = 0
KAMH 102020Z 25005KT 10/02 A3027 RMK A01 T01040015  RH  055%=      5-min Rain = 0
KAMH 102025Z 25005KT 10/02 A3027 RMK A01 T01040015  RH  055%=      5-min Rain = 0
KAMH 102030Z 25004KT 10/01 A3027 RMK A01 T01030014  RH  055%=      5-min Rain = 0
KAMH 102035Z 26004KT 11/02 A3027 RMK A01 T01050016  RH  055%=      5-min Rain = 0
KAMH 102040Z 26005KT 11/02 A3026 RMK A01 T01070016  RH  054%=      5-min Rain = 0
KAMH 102045Z 25006KT 11/01 A3026 RMK A01 T01100010  RH  051%=      5-min Rain = 0
KAMH 102050Z 24006KT 11/M00 A3026 RMK A01 T01131003  RH  045%=      5-min Rain = 0
KAMH 102055Z 24006KT 11/00 A3026 RMK A01 T01130001  RH  047%=      5-min Rain = 0
KAMH 102100Z 24007KT 11/M01 A3025 RMK A01 T01131006  RH  044%=      5-min Rain = 0
KAMH 102105Z 24006KT 12/M01 A3025 RMK A01 T01151007  RH  043%=      5-min Rain = 0
KAMH 102110Z 24007KT 12/M01 A3025 RMK A01 T01171008  RH  042%=      5-min Rain = 0
KAMH 102115Z 22007KT 12/M01 A3025 RMK A01 T01181009  RH  042%=      5-min Rain = 0
KAMH 102120Z 22006KT 12/M00 A3025 RMK A01 T01181001  RH  044%=      5-min Rain = 0
KAMH 102125Z 22007KT 12/M00 A3025 RMK A01 T01201004  RH  043%=      5-min Rain = 0
KAMH 102130Z 22006KT 12/M01 A3025 RMK A01 T01211007  RH  042%=      5-min Rain = 0
KAMH 102135Z 21007KT 12/M01 A3025 RMK A01 T01211006  RH  042%=      5-min Rain = 0
KAMH 102140Z 22007KT 12/M01 A3024 RMK A01 T01201009  RH  041%=      5-min Rain = 0
KAMH 102145Z 22007KT 12/M01 A3024 RMK A01 T01201012  RH  040%=      5-min Rain = 0
KAMH 102150Z 22008KT 12/M01 A3024 RMK A01 T01201012  RH  040%=      5-min Rain = 0
KAMH 102155Z 22007KT 12/M01 A3024 RMK A01 T01201012  RH  040%=      5-min Rain = 0
KAMH 102200Z 22007KT 12/M01 A3024 RMK A01 T01181014  RH  040%=      5-min Rain = 0
KAMH 102205Z 22008KT 11/M02 A3025 RMK A01 T01131018  RH  040%=      5-min Rain = 0
KAMH 102210Z 21007KT 11/M02 A3025 RMK A01 T01091018  RH  042%=      5-min Rain = 0
KAMH 102215Z 21007KT 11/M02 A3025 RMK A01 T01061017  RH  043%=      5-min Rain = 0
KAMH 102220Z 22007KT 10/M02 A3025 RMK A01 T01041016  RH  044%=      5-min Rain = 0
KAMH 102225Z 22007KT 10/M02 A3025 RMK A01 T01011015  RH  045%=      5-min Rain = 0
KAMH 102230Z 22007KT 10/M01 A3025 RMK A01 T01001011  RH  046%=      5-min Rain = 0
KAMH 102235Z 22006KT 10/M01 A3025 RMK A01 T00981009  RH  048%=      5-min Rain = 0
KAMH 102240Z 22006KT 10/M01 A3025 RMK A01 T00981009  RH  048%=      5-min Rain = 0
KAMH 102245Z 22005KT 10/M01 A3025 RMK A01 T00991006  RH  048%=      5-min Rain = 0
KAMH 102250Z 21005KT 10/M00 A3025 RMK A01 T00981003  RH  050%=      5-min Rain = 0
KAMH 102255Z 21005KT 10/M00 A3025 RMK A01 T00951003  RH  051%=      5-min Rain = 0
KAMH 102300Z 22005KT 10/M00 A3025 RMK A01 T00961002  RH  051%=      5-min Rain = 0
KAMH 102305Z 22005KT 10/M00 A3025 RMK A01 T00971001  RH  051%=      5-min Rain = 0
KAMH 102310Z 21006KT 09/M00 A3025 RMK A01 T00941002  RH  052%=      5-min Rain = 0
KAMH 102315Z 20005KT 09/M00 A3025 RMK A01 T00921002  RH  053%=      5-min Rain = 0
KAMH 102320Z 19005KT 09/M00 A3025 RMK A01 T00881001  RH  054%=      5-min Rain = 0
KAMH 102325Z 20005KT 08/M00 A3025 RMK A01 T00841001  RH  056%=      5-min Rain = 0
KAMH 102330Z 19005KT 08/00 A3025 RMK A01 T00780002  RH  059%=      5-min Rain = 0
KAMH 102335Z 18005KT 07/01 A3025 RMK A01 T00690006  RH  065%=      5-min Rain = 0
KAMH 102340Z 18005KT 07/00 A3025 RMK A01 T00650004  RH  066%=      5-min Rain = 0
KAMH 102345Z 18005KT 07/00 A3025 RMK A01 T00650000  RH  064%=      5-min Rain = 0
KAMH 102350Z 17005KT 06/M00 A3025 RMK A01 T00591002  RH  066%=      5-min Rain = 0
KAMH 102355Z 18005KT 06/M00 A3025 RMK A01 T00551001  RH  068%=      5-min Rain = 0
KAMH 110000Z 17005KT 05/M00 A3026 RMK A01 T00511001  RH  070%=      5-min Rain = 0
KAMH 110005Z 17006KT 04/M01 A3026 RMK A01 T00431005  RH  072%=      5-min Rain = 0
KAMH 110010Z 16005KT 04/M01 A3025 RMK A01 T00381006  RH  074%=      5-min Rain = 0
KAMH 110015Z 17005KT 04/M01 A3025 RMK A01 T00381005  RH  074%=      5-min Rain = 0
KAMH 110020Z 17005KT 03/M01 A3025 RMK A01 T00341005  RH  077%=      5-min Rain = 0
KAMH 110025Z 17005KT 03/M00 A3025 RMK A01 T00311003  RH  079%=      5-min Rain = 0
KAMH 110030Z 16005KT 03/M00 A3025 RMK A01 T00281003  RH  081%=      5-min Rain = 0
KAMH 110035Z 16005KT 03/M00 A3026 RMK A01 T00261003  RH  082%=      5-min Rain = 0
KAMH 110040Z 16006KT 03/M00 A3026 RMK A01 T00251002  RH  083%=      5-min Rain = 0
KAMH 110045Z 16006KT 02/M00 A3026 RMK A01 T00241002  RH  084%=      5-min Rain = 0
KAMH 110050Z 17006KT 02/M00 A3026 RMK A01 T00231002  RH  084%=      5-min Rain = 0
KAMH 110055Z 17006KT 02/M00 A3026 RMK A01 T00221003  RH  085%=      5-min Rain = 0
KAMH 110100Z 17006KT 02/M00 A3026 RMK A01 T00191004  RH  085%=      5-min Rain = 0
KAMH 110105Z 17006KT 02/M01 A3026 RMK A01 T00171005  RH  086%=      5-min Rain = 0
KAMH 110110Z 17006KT 02/M01 A3026 RMK A01 T00151006  RH  087%=      5-min Rain = 0
KAMH 110115Z 17006KT 02/M01 A3026 RMK A01 T00151006  RH  087%=      5-min Rain = 0
KAMH 110120Z 18006KT 01/M01 A3026 RMK A01 T00141006  RH  087%=      5-min Rain = 0
KAMH 110125Z 18006KT 02/M01 A3026 RMK A01 T00161005  RH  087%=      5-min Rain = 0
KAMH 110130Z 18006KT 02/M01 A3026 RMK A01 T00171005  RH  086%=      5-min Rain = 0
KAMH 110135Z 18006KT 02/M01 A3027 RMK A01 T00161007  RH  086%=      5-min Rain = 0
KAMH 110140Z 18006KT 02/M01 A3027 RMK A01 T00171007  RH  085%=      5-min Rain = 0
KAMH 110145Z 18006KT 02/M01 A3027 RMK A01 T00181008  RH  084%=      5-min Rain = 0
KAMH 110150Z 18006KT 02/M01 A3027 RMK A01 T00171010  RH  083%=      5-min Rain = 0
KAMH 110155Z 18006KT 02/M01 A3027 RMK A01 T00151011  RH  083%=      5-min Rain = 0
KAMH 110200Z 18006KT 01/M01 A3027 RMK A01 T00121012  RH  085%=      5-min Rain = 0
KAMH 110205Z 18006KT 01/M01 A3027 RMK A01 T00131011  RH  085%=      5-min Rain = 0
KAMH 110210Z 18006KT 01/M01 A3027 RMK A01 T00121012  RH  085%=      5-min Rain = 0
KAMH 110215Z 18006KT 01/M01 A3026 RMK A01 T00091013  RH  086%=      5-min Rain = 0
KAMH 110220Z 18006KT 01/M01 A3027 RMK A01 T00081013  RH  087%=      5-min Rain = 0
KAMH 110225Z 18006KT 01/M01 A3027 RMK A01 T00091011  RH  087%=      5-min Rain = 0
KAMH 110230Z 18007KT 01/M01 A3026 RMK A01 T00101010  RH  087%=      5-min Rain = 0
KAMH 110235Z 18007KT 01/M01 A3026 RMK A01 T00101010  RH  088%=      5-min Rain = 0
KAMH 110240Z 18007KT 01/M01 A3027 RMK A01 T00111008  RH  088%=      5-min Rain = 0
KAMH 110245Z 17007KT 01/M01 A3026 RMK A01 T00101009  RH  088%=      5-min Rain = 0
KAMH 110250Z 18006KT 01/M01 A3026 RMK A01 T00071011  RH  089%=      5-min Rain = 0
KAMH 110255Z 18006KT 01/M01 A3026 RMK A01 T00051012  RH  089%=      5-min Rain = 0
KAMH 110300Z 18007KT 01/M01 A3027 RMK A01 T00071010  RH  090%=      5-min Rain = 0
KAMH 110305Z 18007KT 01/M01 A3027 RMK A01 T00091009  RH  089%=      5-min Rain = 0
KAMH 110310Z 18007KT 01/M01 A3027 RMK A01 T00081010  RH  088%=      5-min Rain = 0
KAMH 110315Z 17007KT 01/M01 A3027 RMK A01 T00061012  RH  089%=      5-min Rain = 0
KAMH 110320Z 18008KT 00/M01 A3027 RMK A01 T00031014  RH  089%=      5-min Rain = 0
KAMH 110325Z 18007KT 00/M01 A3027 RMK A01 T00031013  RH  090%=      5-min Rain = 0
KAMH 110330Z 19008KT 01/M01 A3027 RMK A01 T00071010  RH  090%=      5-min Rain = 0
KAMH 110335Z 19008KT 01/M01 A3027 RMK A01 T00111010  RH  087%=      5-min Rain = 0
KAMH 110340Z 20008KT 01/M01 A3027 RMK A01 T00121011  RH  086%=      5-min Rain = 0
KAMH 110345Z 20008KT 02/M01 A3027 RMK A01 T00171011  RH  082%=      5-min Rain = 0
KAMH 110350Z 20007KT 02/M01 A3027 RMK A01 T00151014  RH  082%=      5-min Rain = 0
KAMH 110355Z 20007KT 01/M01 A3027 RMK A01 T00141014  RH  082%=      5-min Rain = 0
KAMH 110400Z 20007KT 01/M02 A3027 RMK A01 T00141016  RH  081%=      5-min Rain = 0
KAMH 110405Z 20007KT 02/M02 A3027 RMK A01 T00191015  RH  079%=      5-min Rain = 0
KAMH 110410Z 21007KT 02/M02 A3027 RMK A01 T00221017  RH  076%=      5-min Rain = 0
KAMH 110415Z 22008KT 02/M02 A3027 RMK A01 T00191018  RH  077%=      5-min Rain = 0
KAMH 110420Z 22009KT 02/M02 A3027 RMK A01 T00171016  RH  080%=      5-min Rain = 0
KAMH 110425Z 23008KT 02/M02 A3027 RMK A01 T00161017  RH  080%=      5-min Rain = 0
KAMH 110430Z 23008KT 02/M02 A3027 RMK A01 T00171018  RH  079%=      5-min Rain = 0
KAMH 110435Z 23008KT 02/M02 A3027 RMK A01 T00171018  RH  078%=      5-min Rain = 0
KAMH 110440Z 23007KT 02/M02 A3027 RMK A01 T00181019  RH  077%=      5-min Rain = 0
KAMH 110445Z 23007KT 02/M02 A3027 RMK A01 T00161019  RH  078%=      5-min Rain = 0
KAMH 110450Z 23007KT 02/M02 A3027 RMK A01 T00151018  RH  079%=      5-min Rain = 0
KAMH 110455Z 23007KT 01/M02 A3027 RMK A01 T00141018  RH  080%=      5-min Rain = 0
KAMH 110500Z 23007KT 01/M02 A3027 RMK A01 T00141019  RH  079%=      5-min Rain = 0
KAMH 110505Z 23006KT 01/M02 A3027 RMK A01 T00141020  RH  079%=      5-min Rain = 0
KAMH 110510Z 23006KT 01/M02 A3027 RMK A01 T00131020  RH  079%=      5-min Rain = 0
KAMH 110515Z 23007KT 01/M02 A3027 RMK A01 T00121021  RH  080%=      5-min Rain = 0
KAMH 110520Z 23006KT 01/M02 A3026 RMK A01 T00111021  RH  080%=      5-min Rain = 0
KAMH 110525Z 22006KT 01/M02 A3026 RMK A01 T00091022  RH  081%=      5-min Rain = 0
KAMH 110530Z 22005KT 01/M02 A3026 RMK A01 T00071023  RH  081%=      5-min Rain = 0
KAMH 110535Z 22005KT 01/M02 A3026 RMK A01 T00061024  RH  081%=      5-min Rain = 0
KAMH 110540Z 23006KT 01/M02 A3026 RMK A01 T00081023  RH  081%=      5-min Rain = 0
KAMH 110545Z 21005KT 01/M02 A3026 RMK A01 T00071024  RH  081%=      5-min Rain = 0
KAMH 110550Z 22005KT 01/M03 A3025 RMK A01 T00051025  RH  081%=      5-min Rain = 0
KAMH 110555Z 23005KT 00/M03 A3025 RMK A01 T00031026  RH  082%=      5-min Rain = 0

Page generated in 0.0097 seconds.